Time;durP1;ratioP1;P1;durP2;ratioP2;P2;SDS_P1;SDS_P2;PMS_P1;PMS_P2;Temp;Humidity;BMP_temperature;BMP_pressure;BME280_temperature;BME280_humidity;BME280_pressure;Samples;Min_cycle;Max_cycle;Signal;HPM_P1;HPM_P2
2023/10/24 00:01:54;;;;;;;2.70;2.30;;;24.00;65.80;;;;;;5002766;28;20510;-71
2023/10/24 00:04:23;;;;;;;2.50;2.30;;;24.00;65.80;;;;;;5010252;28;20467;-71
2023/10/24 00:06:51;;;;;;;5.30;2.47;;;23.90;65.80;;;;;;5011368;28;21010;-72
2023/10/24 00:09:19;;;;;;;3.13;2.70;;;23.90;65.80;;;;;;5006885;28;20490;-73
2023/10/24 00:11:47;;;;;;;2.47;2.17;;;23.90;65.80;;;;;;5007495;28;20869;-71
2023/10/24 00:14:16;;;;;;;2.87;2.60;;;23.90;65.70;;;;;;5013848;28;20508;-72
2023/10/24 00:16:44;;;;;;;2.53;2.33;;;23.90;65.70;;;;;;5001966;28;20819;-72
2023/10/24 00:19:13;;;;;;;1.87;1.77;;;23.90;65.70;;;;;;5011028;28;20520;-72
2023/10/24 00:21:42;;;;;;;2.37;2.17;;;23.90;65.70;;;;;;5016274;28;20471;-72
2023/10/24 00:24:11;;;;;;;2.90;2.60;;;23.90;65.70;;;;;;5008298;28;20461;-73
2023/10/24 00:26:39;;;;;;;2.67;2.47;;;23.90;65.70;;;;;;5013339;28;20451;-70
2023/10/24 00:29:07;;;;;;;2.63;2.33;;;23.90;65.70;;;;;;5018335;28;20872;-72
2023/10/24 00:31:35;;;;;;;2.50;2.13;;;23.90;65.70;;;;;;5005652;28;20552;-72
2023/10/24 00:34:05;;;;;;;3.43;2.27;;;23.80;65.70;;;;;;5008082;28;20993;-73
2023/10/24 00:36:35;;;;;;;2.27;2.07;;;23.80;65.70;;;;;;5009774;28;20881;-73
2023/10/24 00:39:04;;;;;;;2.90;1.80;;;23.80;65.70;;;;;;5009591;28;20549;-72
2023/10/24 00:41:32;;;;;;;1.90;1.73;;;23.80;65.70;;;;;;5013909;28;20474;-73
2023/10/24 00:44:01;;;;;;;2.47;2.27;;;23.80;65.70;;;;;;5009161;28;20461;-72
2023/10/24 00:46:30;;;;;;;2.03;1.93;;;23.80;65.70;;;;;;5003534;28;20486;-71
2023/10/24 00:48:58;;;;;;;2.93;2.17;;;23.80;65.70;;;;;;5005043;28;20482;-72
2023/10/24 00:51:28;;;;;;;1.80;1.70;;;23.80;65.70;;;;;;5013501;28;21024;-72
2023/10/24 00:54:00;;;;;;;2.53;2.33;;;23.80;65.70;;;;;;5010726;28;20610;-71
2023/10/24 00:56:30;;;;;;;2.47;2.23;;;23.80;65.70;;;;;;5011628;28;20457;-71
2023/10/24 00:59:02;;;;;;;5.17;2.20;;;23.80;65.70;;;;;;5004666;28;20496;-72
2023/10/24 01:01:31;;;;;;;2.07;1.87;;;23.80;65.70;;;;;;5009176;28;20466;-71
2023/10/24 01:04:00;;;;;;;2.07;1.97;;;23.80;65.70;;;;;;5006649;28;20984;-71
2023/10/24 01:06:29;;;;;;;2.23;1.80;;;23.80;65.70;;;;;;5008450;28;20457;-72
2023/10/24 01:08:58;;;;;;;2.03;1.90;;;23.80;65.70;;;;;;5010623;28;20460;-71
2023/10/24 01:11:28;;;;;;;1.67;1.57;;;23.80;65.70;;;;;;5011475;28;20516;-71
2023/10/24 01:13:59;;;;;;;2.10;2.00;;;23.80;65.70;;;;;;5014610;28;20510;-71
2023/10/24 01:16:27;;;;;;;2.03;1.83;;;23.80;65.70;;;;;;5005304;28;20970;-71
2023/10/24 01:18:58;;;;;;;1.97;1.77;;;23.80;65.50;;;;;;5008966;28;20895;-71
2023/10/24 01:21:26;;;;;;;2.40;2.20;;;23.80;65.50;;;;;;5011468;28;20524;-71
2023/10/24 01:23:57;;;;;;;2.10;1.97;;;23.80;65.50;;;;;;5004418;28;20462;-70
2023/10/24 01:26:26;;;;;;;2.27;2.17;;;23.80;65.50;;;;;;5011693;28;20440;-71
2023/10/24 01:28:55;;;;;;;2.23;2.03;;;23.80;65.50;;;;;;5006543;28;20529;-72
2023/10/24 01:31:23;;;;;;;2.83;2.53;;;23.80;65.40;;;;;;5010606;28;20549;-72
2023/10/24 01:33:51;;;;;;;2.20;2.00;;;23.80;65.40;;;;;;5002209;28;21052;-72
2023/10/24 01:36:19;;;;;;;2.67;2.07;;;23.80;65.40;;;;;;5006922;28;20449;-73
2023/10/24 01:38:47;;;;;;;2.23;1.60;;;23.80;65.50;;;;;;5010776;28;20465;-70
2023/10/24 01:41:17;;;;;;;1.80;1.67;;;23.80;65.40;;;;;;5007256;28;20565;-71
2023/10/24 01:43:45;;;;;;;2.60;2.40;;;23.80;65.50;;;;;;5009750;28;20768;-71
2023/10/24 01:46:14;;;;;;;1.90;1.60;;;23.80;65.50;;;;;;5007101;28;20897;-71
2023/10/24 01:48:42;;;;;;;2.37;2.17;;;23.80;65.50;;;;;;5007213;28;20979;-72
2023/10/24 01:51:10;;;;;;;2.30;2.20;;;23.80;65.40;;;;;;5010232;28;20531;-72
2023/10/24 01:53:38;;;;;;;1.77;1.67;;;23.70;65.50;;;;;;5003329;28;20561;-72
2023/10/24 01:56:07;;;;;;;2.20;2.00;;;23.70;65.50;;;;;;5008635;28;20466;-71
2023/10/24 01:58:36;;;;;;;2.20;2.00;;;23.70;65.50;;;;;;5008043;28;20465;-73
2023/10/24 02:01:06;;;;;;;2.17;2.07;;;23.70;65.50;;;;;;5004991;28;20466;-72
2023/10/24 02:03:35;;;;;;;1.93;1.73;;;23.70;65.50;;;;;;5009117;28;20555;-72
2023/10/24 02:06:04;;;;;;;2.07;1.97;;;23.70;65.50;;;;;;5003066;28;22825;-72
2023/10/24 02:08:33;;;;;;;2.40;2.20;;;23.70;65.50;;;;;;5006888;28;20453;-72
2023/10/24 02:11:02;;;;;;;1.67;1.53;;;23.70;65.50;;;;;;5008368;28;20459;-72
2023/10/24 02:13:30;;;;;;;2.27;2.03;;;23.70;65.50;;;;;;5000925;28;20459;-72
2023/10/24 02:15:59;;;;;;;1.87;1.77;;;23.70;65.40;;;;;;5006259;28;20468;-72
2023/10/24 02:18:28;;;;;;;2.00;1.90;;;23.70;65.50;;;;;;5009659;28;20445;-71
2023/10/24 02:20:56;;;;;;;2.00;1.90;;;23.70;65.40;;;;;;5005217;28;20456;-72
2023/10/24 02:23:24;;;;;;;1.80;1.70;;;23.70;65.40;;;;;;5009191;28;20449;-72
2023/10/24 02:25:52;;;;;;;2.23;1.73;;;23.70;65.40;;;;;;5002916;28;21330;-72
2023/10/24 02:28:21;;;;;;;2.30;2.00;;;23.70;65.50;;;;;;5006813;28;21210;-72
2023/10/24 02:30:49;;;;;;;1.97;1.87;;;23.70;65.50;;;;;;5006940;28;20853;-72
2023/10/24 02:33:19;;;;;;;2.10;2.00;;;23.70;65.50;;;;;;5008948;28;20868;-71
2023/10/24 02:35:47;;;;;;;1.70;1.60;;;23.60;65.40;;;;;;5010439;28;20481;-72
2023/10/24 02:38:17;;;;;;;2.27;2.07;;;23.60;65.50;;;;;;4997339;28;20474;-72
2023/10/24 02:40:52;;;;;;;2.20;1.70;;;23.60;65.50;;;;;;5009393;28;20477;-72
2023/10/24 02:43:20;;;;;;;2.03;1.80;;;23.60;65.50;;;;;;5004894;28;20461;-72
2023/10/24 02:45:49;;;;;;;1.90;1.80;;;23.60;65.40;;;;;;5003126;28;20470;-71
2023/10/24 02:48:18;;;;;;;1.73;1.63;;;23.60;65.40;;;;;;5006608;28;20571;-72
2023/10/24 02:50:52;;;;;;;1.60;1.50;;;23.60;65.40;;;;;;5004650;28;20496;-72
2023/10/24 02:53:21;;;;;;;2.40;2.20;;;23.60;65.40;;;;;;5016042;28;20936;-73
2023/10/24 02:55:50;;;;;;;2.00;1.90;;;23.60;65.40;;;;;;5001941;28;20475;-71
2023/10/24 02:58:19;;;;;;;1.80;1.70;;;23.60;65.40;;;;;;5005384;28;20466;-70
2023/10/24 03:00:47;;;;;;;2.30;2.10;;;23.60;65.40;;;;;;5007404;28;21001;-71
2023/10/24 03:03:15;;;;;;;1.53;1.37;;;23.60;65.40;;;;;;5008330;28;20512;-72
2023/10/24 03:05:45;;;;;;;2.27;2.07;;;23.60;65.40;;;;;;5008664;28;20458;-71
2023/10/24 03:08:13;;;;;;;2.23;2.13;;;23.60;65.40;;;;;;5002721;28;21175;-71
2023/10/24 03:10:42;;;;;;;1.90;1.80;;;23.60;65.40;;;;;;5007893;28;20853;-70
2023/10/24 03:13:10;;;;;;;1.63;1.53;;;23.60;65.40;;;;;;5003483;28;20472;-72
2023/10/24 03:15:39;;;;;;;1.70;1.60;;;23.60;65.40;;;;;;5013081;28;20921;-72
2023/10/24 03:18:07;;;;;;;1.87;1.77;;;23.60;65.40;;;;;;4996304;28;20449;-72
2023/10/24 03:20:36;;;;;;;1.70;1.60;;;23.60;65.40;;;;;;5006742;28;20556;-72
2023/10/24 03:23:06;;;;;;;1.87;1.77;;;23.60;65.40;;;;;;5005097;28;20464;-73
2023/10/24 03:25:34;;;;;;;2.20;2.00;;;23.50;65.40;;;;;;5004742;28;20467;-72
2023/10/24 03:28:03;;;;;;;2.03;1.87;;;23.50;65.30;;;;;;5018701;28;20468;-73
2023/10/24 03:30:31;;;;;;;1.95;1.80;;;23.60;65.30;;;;;;4481407;28;15059129;-72
2023/10/24 03:33:00;;;;;;;2.00;1.80;;;23.50;65.30;;;;;;4992073;28;20210;-71
2023/10/24 03:35:33;;;;;;;2.10;2.00;;;23.50;65.30;;;;;;4999072;28;20481;-73
2023/10/24 03:38:01;;;;;;;1.60;1.50;;;23.50;65.30;;;;;;4999721;28;20470;-73
2023/10/24 03:40:30;;;;;;;2.00;1.90;;;23.50;65.30;;;;;;5008111;28;20456;-72
2023/10/24 03:42:59;;;;;;;1.77;1.67;;;23.50;65.30;;;;;;5003954;28;20511;-72
2023/10/24 03:45:27;;;;;;;2.20;2.10;;;23.50;65.30;;;;;;5007856;28;21009;-73
2023/10/24 03:47:56;;;;;;;1.80;1.70;;;23.50;65.30;;;;;;5004482;28;21002;-70
2023/10/24 03:50:24;;;;;;;4.87;2.10;;;23.50;65.30;;;;;;5006835;28;20553;-71
2023/10/24 03:52:53;;;;;;;2.00;1.90;;;23.50;65.20;;;;;;5009019;28;20809;-71
2023/10/24 03:55:23;;;;;;;2.30;2.10;;;23.50;65.30;;;;;;5006146;28;20478;-71
2023/10/24 03:57:54;;;;;;;1.50;1.40;;;23.50;65.30;;;;;;5008328;28;20491;-73
2023/10/24 04:00:22;;;;;;;1.63;1.53;;;23.50;65.30;;;;;;5007007;28;20461;-73
2023/10/24 04:02:51;;;;;;;1.93;1.83;;;23.50;65.30;;;;;;5016037;28;20893;-72
2023/10/24 04:05:20;;;;;;;1.90;1.80;;;23.50;65.40;;;;;;5006353;28;20531;-72
2023/10/24 04:07:48;;;;;;;1.77;1.60;;;23.50;65.40;;;;;;5013698;28;20466;-71
2023/10/24 04:10:17;;;;;;;2.07;1.97;;;23.50;65.40;;;;;;5008631;28;20466;-72
2023/10/24 04:12:46;;;;;;;2.03;1.93;;;23.50;65.40;;;;;;5010539;28;20473;-72
2023/10/24 04:15:16;;;;;;;2.60;2.40;;;23.60;65.40;;;;;;5014878;28;20822;-73
2023/10/24 04:17:45;;;;;;;2.37;2.17;;;23.60;65.40;;;;;;5006698;28;20475;-72
2023/10/24 04:20:13;;;;;;;2.70;2.50;;;23.60;65.40;;;;;;5003843;28;20839;-71
2023/10/24 04:22:44;;;;;;;2.53;2.33;;;23.60;65.30;;;;;;5024436;28;20508;-72
2023/10/24 04:25:12;;;;;;;2.73;2.20;;;23.60;65.30;;;;;;5007452;28;20465;-72
2023/10/24 04:27:40;;;;;;;1.70;1.60;;;23.70;65.30;;;;;;5001510;28;20497;-73
2023/10/24 04:30:10;;;;;;;1.97;1.87;;;23.70;65.20;;;;;;4996937;28;20458;-71
2023/10/24 04:32:40;;;;;;;1.80;1.70;;;23.70;65.10;;;;;;5009352;28;20462;-71
2023/10/24 04:35:09;;;;;;;2.40;2.20;;;23.70;65.10;;;;;;5009687;28;20475;-71
2023/10/24 04:37:37;;;;;;;2.00;1.90;;;23.70;65.10;;;;;;5011582;28;20924;-71
2023/10/24 04:40:07;;;;;;;2.13;2.03;;;23.70;65.10;;;;;;5007033;28;20827;-73
2023/10/24 04:42:35;;;;;;;2.00;1.90;;;23.70;65.10;;;;;;5008054;28;20895;-72
2023/10/24 04:45:04;;;;;;;2.43;2.23;;;23.70;65.10;;;;;;5004529;28;20464;-71
2023/10/24 04:47:32;;;;;;;2.03;1.93;;;23.70;65.10;;;;;;5012480;28;20507;-73
2023/10/24 04:50:03;;;;;;;1.70;1.50;;;23.70;65.20;;;;;;5000846;28;20474;-73
2023/10/24 04:52:31;;;;;;;2.60;2.40;;;23.70;65.30;;;;;;5009814;28;20441;-72
2023/10/24 04:54:59;;;;;;;2.07;1.93;;;23.70;65.30;;;;;;5000629;28;20588;-72
2023/10/24 04:57:28;;;;;;;1.93;1.70;;;23.70;65.40;;;;;;5001972;28;20501;-73
2023/10/24 04:59:56;;;;;;;2.60;2.10;;;23.70;65.40;;;;;;5010019;28;20502;-73
2023/10/24 05:02:24;;;;;;;1.90;1.80;;;23.70;65.50;;;;;;5005841;28;20469;-73
2023/10/24 05:04:53;;;;;;;10.20;1.97;;;23.70;65.60;;;;;;5000005;28;20462;-74
2023/10/24 05:07:22;;;;;;;1.90;1.80;;;23.70;65.60;;;;;;5002353;28;20458;-74
2023/10/24 05:09:51;;;;;;;2.20;1.90;;;23.60;65.70;;;;;;5010989;28;20448;-73
2023/10/24 05:12:19;;;;;;;3.33;1.90;;;23.60;65.70;;;;;;5001998;28;21709;-73
2023/10/24 05:14:47;;;;;;;1.80;1.70;;;23.60;65.70;;;;;;5006091;28;20833;-73
2023/10/24 05:17:15;;;;;;;1.97;1.87;;;23.60;65.70;;;;;;5002057;28;20472;-74
2023/10/24 05:19:44;;;;;;;3.23;1.93;;;23.60;65.80;;;;;;5004405;28;20998;-73
2023/10/24 05:22:13;;;;;;;1.80;1.70;;;23.60;65.80;;;;;;5009378;28;20453;-74
2023/10/24 05:24:43;;;;;;;1.60;1.50;;;23.60;65.80;;;;;;5003565;28;20470;-74
2023/10/24 05:27:11;;;;;;;2.20;2.10;;;23.60;65.90;;;;;;5010075;28;21011;-73
2023/10/24 05:29:42;;;;;;;1.80;1.70;;;23.60;65.90;;;;;;5009687;28;20473;-74
2023/10/24 05:32:10;;;;;;;1.90;1.70;;;23.60;65.90;;;;;;5005803;28;21045;-74
2023/10/24 05:34:39;;;;;;;1.90;1.73;;;23.50;66.00;;;;;;5009489;28;20460;-74
2023/10/24 05:37:07;;;;;;;3.60;2.07;;;23.50;65.90;;;;;;5005718;28;20841;-74
2023/10/24 05:39:36;;;;;;;2.60;2.07;;;23.50;66.00;;;;;;5011621;28;20456;-74
2023/10/24 05:42:05;;;;;;;2.03;1.80;;;23.50;66.00;;;;;;5003113;28;20497;-74
2023/10/24 05:44:34;;;;;;;2.03;1.80;;;23.50;66.00;;;;;;5007148;28;20460;-74
2023/10/24 05:47:02;;;;;;;2.13;2.03;;;23.50;66.00;;;;;;5002285;28;20487;-75
2023/10/24 05:49:31;;;;;;;2.97;1.73;;;23.50;66.00;;;;;;5000909;28;20457;-72
2023/10/24 05:52:00;;;;;;;2.23;2.03;;;23.50;66.00;;;;;;5005193;28;20455;-73
2023/10/24 05:54:28;;;;;;;2.10;1.90;;;23.50;66.00;;;;;;5002297;28;20461;-73
2023/10/24 05:56:57;;;;;;;1.97;1.83;;;23.50;66.00;;;;;;5014616;28;20477;-73
2023/10/24 05:59:27;;;;;;;2.13;2.00;;;23.50;66.00;;;;;;5002782;28;20464;-73
2023/10/24 06:01:55;;;;;;;2.83;1.93;;;23.50;66.00;;;;;;4997582;28;20464;-74
2023/10/24 06:04:23;;;;;;;2.40;2.23;;;23.50;65.90;;;;;;5004688;28;20467;-73
2023/10/24 06:06:52;;;;;;;2.87;2.60;;;23.50;66.00;;;;;;5005361;28;20554;-73
2023/10/24 06:09:20;;;;;;;3.10;1.90;;;23.50;66.00;;;;;;4998875;28;20458;-73
2023/10/24 06:11:48;;;;;;;3.43;2.40;;;23.50;66.00;;;;;;5000203;28;20937;-73
2023/10/24 06:14:17;;;;;;;3.43;1.67;;;23.50;66.00;;;;;;5001322;28;20468;-73
2023/10/24 06:16:46;;;;;;;3.40;2.27;;;23.50;66.10;;;;;;4997194;28;20529;-73
2023/10/24 06:19:14;;;;;;;2.80;2.53;;;23.50;66.10;;;;;;4999931;28;20488;-69
2023/10/24 06:21:43;;;;;;;3.77;2.47;;;23.50;66.10;;;;;;5006621;28;20534;-69
2023/10/24 06:24:11;;;;;;;6.20;2.50;;;23.50;66.50;;;;;;5007732;28;20451;-69
2023/10/24 06:26:39;;;;;;;3.60;2.20;;;23.50;66.80;;;;;;4994432;28;20466;-70
2023/10/24 06:29:07;;;;;;;5.53;2.80;;;23.60;66.90;;;;;;5006683;28;20532;-70
2023/10/24 06:31:35;;;;;;;7.93;2.70;;;23.60;67.00;;;;;;5011879;28;20486;-69
2023/10/24 06:34:06;;;;;;;8.43;2.63;;;23.60;67.00;;;;;;5003896;28;20454;-70
2023/10/24 06:36:35;;;;;;;3.50;3.00;;;23.60;67.00;;;;;;5005294;28;20477;-70
2023/10/24 06:39:04;;;;;;;5.23;2.27;;;23.60;66.90;;;;;;5002128;28;20886;-70
2023/10/24 06:41:33;;;;;;;3.37;2.67;;;23.60;66.70;;;;;;4996467;28;20465;-70
2023/10/24 06:44:01;;;;;;;4.10;2.73;;;23.60;66.70;;;;;;5008831;28;20972;-69
2023/10/24 06:46:30;;;;;;;3.50;3.00;;;23.70;66.60;;;;;;4999554;28;20996;-69
2023/10/24 06:48:58;;;;;;;5.40;2.90;;;23.70;66.60;;;;;;5017191;28;21018;-69
2023/10/24 06:51:28;;;;;;;4.33;3.30;;;23.70;66.60;;;;;;5007467;28;20905;-69
2023/10/24 06:53:56;;;;;;;5.23;3.07;;;23.70;66.60;;;;;;5002844;28;20471;-69
2023/10/24 06:56:24;;;;;;;2.80;2.60;;;23.70;66.50;;;;;;5008626;28;20446;-70
2023/10/24 06:58:52;;;;;;;2.83;2.40;;;23.70;66.40;;;;;;5003819;28;20463;-69
2023/10/24 07:01:21;;;;;;;3.40;2.60;;;23.70;66.30;;;;;;5008244;28;20502;-70
2023/10/24 07:03:49;;;;;;;3.33;2.57;;;23.70;66.40;;;;;;5001378;28;20532;-70
2023/10/24 07:06:17;;;;;;;2.67;2.40;;;23.70;66.40;;;;;;5006743;28;20559;-69
2023/10/24 07:08:48;;;;;;;3.83;2.70;;;23.70;66.30;;;;;;4999258;28;20464;-69
2023/10/24 07:11:16;;;;;;;3.77;2.33;;;23.70;66.20;;;;;;5006211;28;20967;-69
2023/10/24 07:13:45;;;;;;;4.17;2.53;;;23.80;66.20;;;;;;5008980;28;20459;-69
2023/10/24 07:16:14;;;;;;;3.13;2.63;;;23.70;66.20;;;;;;5001209;28;20462;-69
2023/10/24 07:18:43;;;;;;;4.27;2.70;;;23.80;66.10;;;;;;5008462;28;20479;-70
2023/10/24 07:21:11;;;;;;;2.73;2.40;;;23.80;66.10;;;;;;5007349;28;20465;-70
2023/10/24 07:23:40;;;;;;;2.83;2.47;;;23.80;66.20;;;;;;5005747;28;21136;-69
2023/10/24 07:26:10;;;;;;;4.93;2.57;;;23.80;66.10;;;;;;5007003;28;20485;-70
2023/10/24 07:28:39;;;;;;;6.10;2.37;;;23.80;66.00;;;;;;5011760;28;20531;-70
2023/10/24 07:31:07;;;;;;;2.70;2.50;;;23.80;65.90;;;;;;5011749;28;21111;-70
2023/10/24 07:33:35;;;;;;;2.70;2.50;;;23.80;65.80;;;;;;5005064;28;21037;-69
2023/10/24 07:36:05;;;;;;;2.67;2.47;;;23.80;65.80;;;;;;5015953;28;20448;-68
2023/10/24 07:38:33;;;;;;;2.30;2.10;;;23.80;65.80;;;;;;5004245;28;20476;-69
2023/10/24 07:41:03;;;;;;;3.80;2.30;;;23.80;65.70;;;;;;5016758;28;20456;-69
2023/10/24 07:43:33;;;;;;;4.20;2.33;;;23.80;65.70;;;;;;5009195;28;20470;-69
2023/10/24 07:46:02;;;;;;;2.53;2.33;;;23.80;65.50;;;;;;5006438;28;20545;-69
2023/10/24 07:48:30;;;;;;;3.50;2.43;;;23.80;65.50;;;;;;5011172;28;21272;-69
2023/10/24 07:50:59;;;;;;;2.83;2.30;;;23.80;65.40;;;;;;5009430;28;20458;-69
2023/10/24 07:53:27;;;;;;;2.60;2.40;;;23.80;65.40;;;;;;5002465;28;20466;-69
2023/10/24 07:55:55;;;;;;;2.60;2.40;;;23.80;65.40;;;;;;5004087;28;20464;-69
2023/10/24 07:58:24;;;;;;;4.00;2.53;;;23.80;65.40;;;;;;5004298;28;20503;-69
2023/10/24 08:00:54;;;;;;;2.77;2.57;;;23.80;65.40;;;;;;5008093;28;20904;-69
2023/10/24 08:03:22;;;;;;;2.77;2.57;;;23.80;65.40;;;;;;5003230;28;20467;-69
2023/10/24 08:05:51;;;;;;;2.90;2.60;;;23.80;65.20;;;;;;5004823;28;20466;-69
2023/10/24 08:08:19;;;;;;;4.90;2.70;;;23.80;65.20;;;;;;4998891;28;20487;-69
2023/10/24 08:10:47;;;;;;;3.50;3.20;;;23.80;65.20;;;;;;5005465;28;20469;-69
2023/10/24 08:13:15;;;;;;;2.23;2.13;;;23.90;65.20;;;;;;5007005;28;20467;-70
2023/10/24 08:15:48;;;;;;;2.83;2.37;;;23.80;65.20;;;;;;5001386;28;20491;-69
2023/10/24 08:18:17;;;;;;;2.70;2.53;;;23.80;65.20;;;;;;5002990;28;21202;-69
2023/10/24 08:20:46;;;;;;;4.17;2.50;;;23.90;65.20;;;;;;5003179;28;20467;-69
2023/10/24 08:23:14;;;;;;;3.00;2.27;;;23.90;65.20;;;;;;5005155;28;20814;-69
2023/10/24 08:25:43;;;;;;;2.90;2.60;;;23.90;65.20;;;;;;5004764;28;20459;-69
2023/10/24 08:28:11;;;;;;;5.40;2.67;;;23.90;65.20;;;;;;5007470;28;20530;-69
2023/10/24 08:30:39;;;;;;;3.20;2.90;;;23.90;65.20;;;;;;5011431;28;21043;-69
2023/10/24 08:33:08;;;;;;;6.20;2.93;;;23.90;65.20;;;;;;5005102;28;20484;-70
2023/10/24 08:35:37;;;;;;;2.67;2.47;;;23.90;65.20;;;;;;5008349;28;20483;-70
2023/10/24 08:38:06;;;;;;;3.27;2.80;;;23.90;65.10;;;;;;5003385;28;20473;-69
2023/10/24 08:40:34;;;;;;;3.40;2.80;;;23.90;65.10;;;;;;5007756;28;20880;-70
2023/10/24 08:43:03;;;;;;;2.40;2.20;;;23.90;65.10;;;;;;5007898;28;20559;-70
2023/10/24 08:45:32;;;;;;;2.70;2.50;;;23.90;65.20;;;;;;5009856;28;20553;-69
2023/10/24 08:48:01;;;;;;;3.20;2.97;;;23.90;65.20;;;;;;5006858;28;20965;-70
2023/10/24 08:50:30;;;;;;;2.60;2.40;;;23.90;65.20;;;;;;5004963;28;20506;-70
2023/10/24 08:53:00;;;;;;;2.63;2.43;;;23.90;65.40;;;;;;5008269;28;20454;-69
2023/10/24 08:55:30;;;;;;;2.67;2.47;;;23.90;65.40;;;;;;5006246;28;20462;-69
2023/10/24 08:58:00;;;;;;;3.70;2.47;;;23.90;65.40;;;;;;5009841;28;20566;-70
2023/10/24 09:00:29;;;;;;;3.10;2.80;;;23.90;65.40;;;;;;5012984;28;20482;-69
2023/10/24 09:03:00;;;;;;;2.87;2.50;;;24.00;65.20;;;;;;5004179;28;20495;-69
2023/10/24 09:05:29;;;;;;;3.60;2.50;;;24.00;65.40;;;;;;4999645;28;20975;-70
2023/10/24 09:07:57;;;;;;;2.50;2.30;;;24.00;65.40;;;;;;5010879;28;20490;-69
2023/10/24 09:10:27;;;;;;;3.10;2.60;;;24.00;65.40;;;;;;5006470;28;20538;-69
2023/10/24 09:12:57;;;;;;;3.10;2.53;;;24.00;65.20;;;;;;4994045;28;20462;-70
2023/10/24 09:15:25;;;;;;;2.50;2.30;;;24.00;65.40;;;;;;5013560;28;20458;-68
2023/10/24 09:17:55;;;;;;;2.20;2.10;;;24.00;65.40;;;;;;5005200;28;20485;-70
2023/10/24 09:20:24;;;;;;;2.50;2.30;;;24.00;65.40;;;;;;5009965;28;20504;-83
2023/10/24 09:22:52;;;;;;;3.07;2.87;;;23.90;65.40;;;;;;5001550;28;20212;-80
2023/10/24 09:25:22;;;;;;;6.03;2.47;;;24.00;65.40;;;;;;5005482;28;20461;-81
2023/10/24 09:27:52;;;;;;;3.27;2.97;;;24.00;65.40;;;;;;4998964;28;20985;-84
2023/10/24 09:30:23;;;;;;;2.53;2.13;;;24.00;65.40;;;;;;5009517;28;20457;-81
2023/10/24 09:32:52;;;;;;;2.53;2.33;;;24.00;65.40;;;;;;5002766;28;20450;-81
2023/10/24 09:35:20;;;;;;;2.40;2.20;;;23.90;65.40;;;;;;5001612;28;20473;-83
2023/10/24 09:37:49;;;;;;;2.23;2.10;;;24.00;65.40;;;;;;5002452;28;20455;-80
2023/10/24 09:40:17;;;;;;;2.40;2.20;;;23.90;65.40;;;;;;5009305;28;20447;-84
2023/10/24 09:42:47;;;;;;;2.73;2.53;;;23.90;65.40;;;;;;4999709;28;20460;-82
2023/10/24 09:45:18;;;;;;;2.80;2.60;;;24.00;65.40;;;;;;5004118;28;20470;-82
2023/10/24 09:47:49;;;;;;;2.37;2.27;;;24.00;65.40;;;;;;5004877;28;20467;-80
2023/10/24 09:50:19;;;;;;;3.40;3.20;;;24.00;65.40;;;;;;5005821;28;20494;-82
2023/10/24 09:52:48;;;;;;;2.90;2.70;;;24.00;65.40;;;;;;5000317;28;20458;-82
2023/10/24 09:55:17;;;;;;;3.53;2.80;;;24.00;65.40;;;;;;5000420;28;20805;-83
2023/10/24 09:57:48;;;;;;;2.77;2.57;;;24.00;65.40;;;;;;5001595;28;20467;-82
2023/10/24 10:00:19;;;;;;;2.97;2.40;;;24.00;65.20;;;;;;5004153;28;20478;-84
2023/10/24 10:02:48;;;;;;;2.93;2.40;;;24.00;65.30;;;;;;5002087;28;20469;-85
2023/10/24 10:05:17;;;;;;;2.97;2.43;;;24.00;65.20;;;;;;5005286;28;20459;-86
2023/10/24 10:07:49;;;;;;;4.37;3.20;;;24.00;65.20;;;;;;5001275;28;20502;-87
2023/10/24 10:10:20;;;;;;;2.70;2.50;;;24.10;65.10;;;;;;4993763;28;21190;-84
2023/10/24 10:12:49;;;;;;;2.60;2.40;;;24.00;65.10;;;;;;5000963;28;20542;-81
2023/10/24 10:15:54;;;;;;;2.53;2.33;;;24.00;65.10;;;;;;5003540;28;20498;-82
2023/10/24 10:18:40;;;;;;;2.83;2.63;;;24.00;65.00;;;;;;4991952;28;20487;-81
2023/10/24 10:21:17;;;;;;;2.80;2.60;;;24.00;65.10;;;;;;5008595;28;20454;-81
2023/10/24 10:24:03;;;;;;;2.70;2.50;;;24.00;64.90;;;;;;5006090;28;20469;-81
2023/10/24 10:26:45;;;;;;;3.90;3.00;;;24.00;64.90;;;;;;4994345;28;20523;-80
2023/10/24 10:29:22;;;;;;;2.67;2.47;;;24.00;64.90;;;;;;5006915;28;20453;-81
2023/10/24 10:32:12;;;;;;;2.00;1.90;;;23.90;64.90;;;;;;5006548;28;20485;-82
2023/10/24 10:35:01;;;;;;;3.17;2.97;;;23.90;64.90;;;;;;5004743;28;20476;-81
2023/10/24 10:37:34;;;;;;;2.80;2.60;;;23.90;64.90;;;;;;5013241;28;21785;-81
2023/10/24 10:40:27;;;;;;;2.67;2.47;;;23.90;64.90;;;;;;5002022;28;20480;-81
2023/10/24 10:42:56;;;;;;;3.30;3.00;;;23.80;64.90;;;;;;5002305;28;20497;-80
2023/10/24 10:45:26;;;;;;;2.43;2.33;;;23.80;65.10;;;;;;5007417;28;20475;-81
2023/10/24 10:47:58;;;;;;;2.80;2.60;;;23.80;65.10;;;;;;5007649;28;20808;-82
2023/10/24 10:50:33;;;;;;;2.87;2.67;;;23.80;65.10;;;;;;5001995;28;20467;-81
2023/10/24 10:53:15;;;;;;;2.40;2.20;;;23.80;65.10;;;;;;5007085;28;20470;-82
2023/10/24 10:56:03;;;;;;;2.60;2.40;;;23.80;65.10;;;;;;5004621;28;20463;-81
2023/10/24 10:58:49;;;;;;;2.87;2.60;;;23.80;65.10;;;;;;5000387;28;21464;-80
2023/10/24 11:01:28;;;;;;;3.73;2.53;;;23.80;65.10;;;;;;5005712;28;20460;-81
2023/10/24 11:03:59;;;;;;;2.93;2.73;;;23.70;65.10;;;;;;5004028;28;20581;-78
2023/10/24 11:06:30;;;;;;;3.17;2.83;;;23.70;65.10;;;;;;5000172;28;20462;-79
2023/10/24 11:09:09;;;;;;;3.13;2.93;;;23.70;65.10;;;;;;4999379;28;20452;-80
2023/10/24 11:11:38;;;;;;;3.63;3.33;;;23.70;65.20;;;;;;5004665;28;20514;-80
2023/10/24 11:14:13;;;;;;;3.10;2.80;;;23.70;65.20;;;;;;5001129;28;20818;-79
2023/10/24 11:16:42;;;;;;;2.73;2.57;;;23.70;65.20;;;;;;5002063;28;21426;-79
2023/10/24 11:19:18;;;;;;;3.47;3.17;;;23.70;65.20;;;;;;5007204;28;20821;-80
2023/10/24 11:21:49;;;;;;;2.80;2.60;;;23.70;65.20;;;;;;5011628;28;20466;-80
2023/10/24 11:24:20;;;;;;;7.00;3.13;;;23.70;65.20;;;;;;5014677;28;20957;-80
2023/10/24 11:26:49;;;;;;;3.50;3.30;;;23.70;65.20;;;;;;5011521;28;20512;-80
2023/10/24 11:29:17;;;;;;;3.00;2.80;;;23.70;65.20;;;;;;5003214;28;20484;-80
2023/10/24 11:31:45;;;;;;;4.20;3.00;;;23.70;65.30;;;;;;5015942;28;20567;-80
2023/10/24 11:34:18;;;;;;;3.40;3.10;;;23.70;65.30;;;;;;5010948;28;20497;-80
2023/10/24 11:36:49;;;;;;;4.63;3.27;;;23.70;65.30;;;;;;5009986;28;20454;-80
2023/10/24 11:39:17;;;;;;;4.20;3.50;;;23.70;65.40;;;;;;5011600;28;20554;-80
2023/10/24 11:41:46;;;;;;;2.77;2.57;;;23.70;65.40;;;;;;5010594;28;20484;-79
2023/10/24 11:44:17;;;;;;;3.23;2.93;;;23.70;65.50;;;;;;5012294;28;20480;-81
2023/10/24 11:46:47;;;;;;;4.60;4.13;;;23.70;65.50;;;;;;5009957;28;20457;-83
2023/10/24 11:49:32;;;;;;;3.40;3.10;;;23.70;65.50;;;;;;5012581;28;20883;-80
2023/10/24 11:52:02;;;;;;;3.97;3.10;;;23.70;65.50;;;;;;5008878;28;20492;-78
2023/10/24 11:54:31;;;;;;;3.43;3.13;;;23.70;65.60;;;;;;5013113;28;20460;-80
2023/10/24 11:57:00;;;;;;;4.47;3.27;;;23.70;65.60;;;;;;5014342;28;20989;-82
2023/10/24 11:59:34;;;;;;;7.40;3.20;;;23.70;65.70;;;;;;5011616;28;20515;-81
2023/10/24 12:02:03;;;;;;;3.30;3.10;;;23.70;65.70;;;;;;5011632;28;20464;-82
2023/10/24 12:04:32;;;;;;;3.13;2.93;;;23.70;65.70;;;;;;5007917;28;20540;-83
2023/10/24 12:07:06;;;;;;;4.03;3.17;;;23.70;65.80;;;;;;5011416;28;20462;-81
2023/10/24 12:09:35;;;;;;;4.37;3.50;;;23.70;65.80;;;;;;5003822;28;20466;-68
2023/10/24 12:12:03;;;;;;;4.90;3.40;;;23.70;65.90;;;;;;5003091;28;20466;-69
2023/10/24 12:14:32;;;;;;;4.60;3.50;;;23.70;66.40;;;;;;5005182;28;20482;-68
2023/10/24 12:17:01;;;;;;;4.30;3.70;;;23.70;66.40;;;;;;5008445;28;20516;-68
2023/10/24 12:19:29;;;;;;;4.00;3.50;;;23.80;66.50;;;;;;5003754;28;20477;-69
2023/10/24 12:21:58;;;;;;;3.60;3.30;;;23.80;66.40;;;;;;5005760;28;20450;-69
2023/10/24 12:24:28;;;;;;;3.63;3.33;;;23.80;66.50;;;;;;5002230;28;20461;-70
2023/10/24 12:26:56;;;;;;;3.40;3.10;;;23.80;66.50;;;;;;5002851;28;20459;-69
2023/10/24 12:29:25;;;;;;;3.33;2.93;;;23.90;66.50;;;;;;5002653;28;20491;-70
2023/10/24 12:31:53;;;;;;;3.33;3.03;;;23.90;66.40;;;;;;4998774;28;20499;-69
2023/10/24 12:34:22;;;;;;;4.57;3.43;;;23.90;66.50;;;;;;5008532;28;20482;-68
2023/10/24 12:36:52;;;;;;;3.53;3.23;;;23.90;66.40;;;;;;5005475;28;20811;-69
2023/10/24 12:39:22;;;;;;;3.50;3.20;;;23.90;66.40;;;;;;5007651;28;20462;-69
2023/10/24 12:41:51;;;;;;;5.20;3.60;;;24.00;66.30;;;;;;5005428;28;20834;-69
2023/10/24 12:44:20;;;;;;;3.27;3.07;;;24.00;66.30;;;;;;5007774;28;20464;-68
2023/10/24 12:46:48;;;;;;;3.20;2.90;;;24.00;66.30;;;;;;5004345;28;20463;-68
2023/10/24 12:49:17;;;;;;;4.03;3.60;;;24.00;66.30;;;;;;5001181;28;20583;-69
2023/10/24 12:51:45;;;;;;;3.30;3.00;;;24.00;66.40;;;;;;5003234;28;20454;-69
2023/10/24 12:54:14;;;;;;;3.80;3.50;;;24.10;66.40;;;;;;5005828;28;20810;-69
2023/10/24 12:56:42;;;;;;;21.63;3.30;;;24.10;66.40;;;;;;5003570;28;20493;-86
2023/10/24 12:59:12;;;;;;;4.40;4.00;;;24.10;66.20;;;;;;5003053;28;20472;-87